Time;durP1;ratioP1;P1;durP2;ratioP2;P2;SDS_P1;SDS_P2;PMS_P1;PMS_P2;Temp;Humidity;BMP_temperature;BMP_pressure;BME280_temperature;BME280_humidity;BME280_pressure;Samples;Min_cycle;Max_cycle;Signal;HPM_P1;HPM_P2
2022/12/12 00:00:37;;;;;;;39.70;23.83;;;3.10;99.90;;;;;;5035391;28;20421;-37
2022/12/12 00:03:03;;;;;;;32.97;21.50;;;3.10;99.90;;;;;;5037549;28;20516;-40
2022/12/12 00:05:29;;;;;;;35.03;20.30;;;3.10;99.90;;;;;;5027879;28;20963;-40
2022/12/12 00:07:55;;;;;;;33.40;20.40;;;3.10;99.90;;;;;;5026454;28;20467;-38
2022/12/12 00:10:20;;;;;;;39.63;21.90;;;3.30;99.90;;;;;;5027491;28;20546;-38
2022/12/12 00:12:46;;;;;;;40.43;20.97;;;3.10;99.90;;;;;;5038362;28;20197;-40
2022/12/12 00:15:12;;;;;;;33.23;20.80;;;3.10;99.90;;;;;;5039343;28;20551;-37
2022/12/12 00:17:38;;;;;;;34.20;21.77;;;2.90;99.90;;;;;;5030503;28;20186;-40
2022/12/12 00:20:05;;;;;;;34.33;21.80;;;3.30;99.90;;;;;;5029211;28;20436;-34
2022/12/12 00:22:31;;;;;;;40.10;22.37;;;3.20;99.90;;;;;;5030154;28;20930;-41
2022/12/12 00:24:56;;;;;;;35.00;20.70;;;2.90;99.90;;;;;;5030855;28;20417;-38
2022/12/12 00:27:22;;;;;;;35.97;21.90;;;3.00;99.90;;;;;;5031447;28;20486;-39
2022/12/12 00:29:53;;;;;;;34.50;22.23;;;3.10;99.90;;;;;;5038284;28;20221;-40
2022/12/12 00:32:19;;;;;;;34.90;20.37;;;2.90;99.90;;;;;;5030844;28;20194;-34
2022/12/12 00:34:45;;;;;;;35.87;20.43;;;3.00;99.90;;;;;;5030219;28;20509;-33
2022/12/12 00:37:10;;;;;;;33.17;21.00;;;2.90;99.90;;;;;;5030716;28;20512;-40
2022/12/12 00:39:36;;;;;;;35.17;22.60;;;3.10;99.90;;;;;;5029474;28;20429;-34
2022/12/12 00:42:02;;;;;;;38.67;21.93;;;3.10;99.90;;;;;;5030660;28;20537;-40
2022/12/12 00:44:28;;;;;;;34.63;20.93;;;3.10;99.90;;;;;;5029778;28;20221;-37
2022/12/12 00:46:53;;;;;;;38.87;22.30;;;3.10;99.90;;;;;;5031763;28;20289;-35
2022/12/12 00:49:19;;;;;;;32.77;20.80;;;3.30;99.90;;;;;;5030202;28;20425;-37
2022/12/12 00:51:45;;;;;;;34.00;21.20;;;3.30;99.90;;;;;;5043854;28;20243;-38
2022/12/12 00:54:10;;;;;;;35.43;22.00;;;3.10;99.90;;;;;;5049832;28;20597;-37
2022/12/12 00:56:36;;;;;;;31.27;20.83;;;3.00;99.90;;;;;;5049807;28;20198;-40
2022/12/12 00:59:03;;;;;;;37.50;23.00;;;3.30;99.90;;;;;;5048527;28;20597;-35
2022/12/12 01:01:30;;;;;;;35.33;22.23;;;3.30;99.90;;;;;;5049714;28;20597;-39
2022/12/12 01:03:57;;;;;;;39.30;23.13;;;3.20;99.90;;;;;;5049919;28;20510;-37
2022/12/12 01:06:24;;;;;;;38.77;23.07;;;3.30;99.90;;;;;;5048617;28;20943;-37
2022/12/12 01:08:50;;;;;;;35.53;21.70;;;3.10;99.90;;;;;;5048182;28;20448;-39
2022/12/12 01:11:17;;;;;;;33.77;21.60;;;3.00;99.90;;;;;;5048761;28;20969;-37
2022/12/12 01:13:44;;;;;;;37.40;23.03;;;3.10;99.90;;;;;;5049412;28;21086;-34
2022/12/12 01:16:11;;;;;;;36.70;23.17;;;3.10;99.90;;;;;;5050113;28;20412;-36
2022/12/12 01:18:37;;;;;;;36.53;22.70;;;3.40;99.90;;;;;;5049015;28;20432;-37
2022/12/12 01:21:06;;;;;;;35.00;20.30;;;3.10;99.90;;;;;;5050210;28;20511;-40
2022/12/12 01:23:32;;;;;;;39.83;21.37;;;3.10;99.90;;;;;;5049132;28;20440;-36
2022/12/12 01:26:03;;;;;;;38.07;22.10;;;3.20;99.90;;;;;;5048733;28;20463;-40
2022/12/12 01:28:29;;;;;;;37.33;21.03;;;3.10;99.90;;;;;;5049185;28;20255;-37
2022/12/12 01:30:54;;;;;;;31.50;20.10;;;3.00;99.90;;;;;;5047974;28;20416;-36
2022/12/12 01:33:20;;;;;;;34.43;22.00;;;3.00;99.90;;;;;;5049385;28;20190;-33
2022/12/12 01:35:45;;;;;;;35.63;21.40;;;3.00;99.90;;;;;;5049247;28;20178;-34
2022/12/12 01:38:11;;;;;;;37.10;22.57;;;3.00;99.90;;;;;;5031324;28;20570;-37
2022/12/12 01:40:37;;;;;;;34.20;20.37;;;2.90;99.90;;;;;;5049064;28;20190;-35
2022/12/12 01:43:09;;;;;;;35.73;20.77;;;2.90;99.90;;;;;;5049185;28;20197;-39
2022/12/12 01:46:02;;;;;;;36.00;22.40;;;3.00;99.90;;;;;;5049586;28;20182;-37
2022/12/12 01:48:37;;;;;;;37.23;21.37;;;2.90;99.90;;;;;;5048782;28;20451;-37
2022/12/12 01:51:09;;;;;;;37.17;21.73;;;2.90;99.90;;;;;;5049389;28;20416;-38
2022/12/12 01:53:36;;;;;;;40.87;21.07;;;3.20;99.90;;;;;;5048539;28;20489;-37
2022/12/12 01:56:08;;;;;;;38.17;22.43;;;3.00;99.90;;;;;;5049326;28;20452;-40
2022/12/12 01:58:33;;;;;;;37.50;22.80;;;3.00;99.90;;;;;;5048253;28;21014;-38
2022/12/12 02:01:00;;;;;;;32.80;20.50;;;2.90;99.90;;;;;;5049122;28;20538;-34
2022/12/12 02:03:26;;;;;;;39.77;22.20;;;3.10;99.90;;;;;;5046990;28;20416;-36
2022/12/12 02:05:58;;;;;;;38.87;21.60;;;3.20;99.90;;;;;;5048916;28;20810;-38
2022/12/12 02:08:24;;;;;;;34.63;22.00;;;3.20;99.90;;;;;;5047266;28;20974;-37
2022/12/12 02:10:50;;;;;;;31.27;21.20;;;2.90;99.90;;;;;;5048604;28;20409;-39
2022/12/12 02:13:20;;;;;;;31.60;19.33;;;2.90;99.90;;;;;;5048461;28;20774;-40
2022/12/12 02:16:13;;;;;;;30.13;20.07;;;3.00;99.90;;;;;;5048621;28;20420;-33
2022/12/12 02:19:16;;;;;;;28.50;19.60;;;3.30;99.90;;;;;;5048442;28;20444;-38
2022/12/12 02:22:13;;;;;;;33.03;20.40;;;3.10;99.90;;;;;;5046817;28;20489;-38
2022/12/12 02:25:07;;;;;;;34.30;21.40;;;3.20;99.90;;;;;;5048307;28;20416;-36
2022/12/12 02:27:59;;;;;;;33.67;19.97;;;3.20;99.90;;;;;;5048279;28;20425;-37
2022/12/12 02:30:56;;;;;;;38.30;21.10;;;3.30;99.90;;;;;;5047560;28;20456;-37
2022/12/12 02:33:39;;;;;;;30.90;19.70;;;3.10;99.90;;;;;;5046437;28;20976;-34
2022/12/12 02:36:46;;;;;;;30.23;19.80;;;3.00;99.90;;;;;;5048210;28;20461;-38
2022/12/12 02:39:17;;;;;;;31.70;20.03;;;3.10;99.90;;;;;;5047590;28;20416;-39
2022/12/12 02:42:00;;;;;;;31.77;20.40;;;3.10;99.90;;;;;;5048220;28;20421;-37
2022/12/12 02:44:32;;;;;;;35.20;22.27;;;3.20;99.90;;;;;;5047728;28;20420;-41
2022/12/12 02:47:08;;;;;;;36.67;20.93;;;2.90;99.90;;;;;;5046584;28;20408;-37
2022/12/12 02:49:45;;;;;;;32.80;19.77;;;3.00;99.90;;;;;;5047455;28;20455;-39
2022/12/12 02:52:11;;;;;;;33.10;19.80;;;2.90;99.90;;;;;;5029920;28;20436;-39
2022/12/12 02:54:37;;;;;;;33.70;19.90;;;2.90;99.90;;;;;;5047563;28;20436;-36
2022/12/12 02:57:17;;;;;;;35.07;20.97;;;3.00;99.90;;;;;;5048030;28;20415;-38
2022/12/12 02:59:57;;;;;;;30.57;18.63;;;3.00;99.90;;;;;;5047851;28;20412;-37
2022/12/12 03:02:26;;;;;;;29.30;18.67;;;3.00;99.90;;;;;;5047863;28;20408;-40
2022/12/12 03:08:17;;;;;;;32.57;18.60;;;3.00;99.90;;;;;;5046682;28;20428;-39
2022/12/12 03:10:49;;;;;;;28.07;18.90;;;2.90;99.90;;;;;;5047490;28;20431;-39
2022/12/12 03:13:15;;;;;;;30.23;19.00;;;3.20;99.90;;;;;;5047005;28;20419;-38
2022/12/12 03:16:05;;;;;;;29.83;18.80;;;3.10;99.90;;;;;;5047917;28;20768;-40
2022/12/12 03:19:00;;;;;;;31.17;19.33;;;2.90;99.90;;;;;;5046975;28;20668;-37
2022/12/12 03:21:34;;;;;;;32.20;18.50;;;2.90;99.90;;;;;;5027495;28;20574;-38
2022/12/12 03:24:06;;;;;;;28.23;18.40;;;3.00;99.90;;;;;;5046927;28;20420;-38
2022/12/12 03:26:44;;;;;;;27.20;18.03;;;3.00;99.90;;;;;;5047614;28;20873;-35
2022/12/12 03:29:19;;;;;;;29.27;17.50;;;3.00;99.90;;;;;;5046590;28;20574;-37
2022/12/12 03:31:51;;;;;;;30.17;19.47;;;2.90;99.90;;;;;;5047681;28;20407;-38
2022/12/12 03:34:26;;;;;;;28.00;18.70;;;3.00;99.90;;;;;;5047160;28;20416;-34
2022/12/12 03:37:14;;;;;;;30.60;18.40;;;3.10;99.90;;;;;;5045952;28;20901;-36
2022/12/12 03:39:48;;;;;;;30.60;18.90;;;3.00;99.90;;;;;;5046681;28;20420;-37
2022/12/12 03:42:40;;;;;;;27.67;18.50;;;2.90;99.90;;;;;;5047504;28;20424;-40
2022/12/12 03:45:16;;;;;;;26.40;18.33;;;3.00;99.90;;;;;;5046963;28;20508;-38
2022/12/12 03:48:04;;;;;;;31.53;18.83;;;2.90;99.90;;;;;;5048299;28;20419;-36
2022/12/12 03:50:54;;;;;;;27.57;17.47;;;2.90;99.90;;;;;;5050914;28;20919;-37
2022/12/12 03:54:02;;;;;;;30.57;18.60;;;3.00;99.90;;;;;;5051088;28;20412;-36
2022/12/12 03:56:38;;;;;;;29.10;18.97;;;2.90;99.90;;;;;;5047287;28;20418;-36
2022/12/12 03:59:13;;;;;;;27.70;17.37;;;2.80;99.90;;;;;;5051156;28;20860;-37
2022/12/12 04:01:55;;;;;;;28.17;18.07;;;2.70;99.90;;;;;;5051181;28;20419;-38
2022/12/12 04:04:37;;;;;;;29.00;18.40;;;2.90;99.90;;;;;;5050770;28;20889;-39
2022/12/12 04:07:15;;;;;;;29.17;17.10;;;2.90;99.90;;;;;;5050615;28;20419;-39
2022/12/12 04:12:59;;;;;;;30.83;18.40;;;3.10;99.90;;;;;;5050989;28;20419;-39
2022/12/12 04:15:28;;;;;;;26.40;16.70;;;2.80;99.90;;;;;;5050654;28;20420;-39
2022/12/12 04:18:20;;;;;;;28.63;19.93;;;3.00;99.90;;;;;;5047034;28;20432;-38
2022/12/12 04:24:17;;;;;;;29.73;18.37;;;2.90;99.90;;;;;;5042702;28;20428;-40
2022/12/12 04:26:48;;;;;;;25.50;18.27;;;2.90;99.90;;;;;;5050636;28;20801;-35
2022/12/12 04:29:49;;;;;;;28.97;17.60;;;3.10;99.90;;;;;;5050552;28;20467;-37
2022/12/12 04:32:31;;;;;;;29.33;18.50;;;3.00;99.90;;;;;;5050396;28;20411;-35
2022/12/12 04:34:59;;;;;;;32.27;18.77;;;2.90;99.90;;;;;;5043029;28;20409;-35
2022/12/12 04:37:55;;;;;;;26.43;16.50;;;3.00;99.90;;;;;;5050231;28;20508;-38
2022/12/12 04:40:29;;;;;;;28.20;17.97;;;2.90;99.90;;;;;;5039908;28;20836;-38
2022/12/12 04:43:16;;;;;;;27.47;17.50;;;3.10;99.90;;;;;;5045912;28;20424;-37
2022/12/12 04:45:48;;;;;;;24.70;17.10;;;3.00;99.90;;;;;;5051959;28;20430;-34
2022/12/12 04:48:19;;;;;;;31.10;18.80;;;2.90;99.90;;;;;;5051644;28;20459;-40
2022/12/12 04:50:49;;;;;;;30.37;18.33;;;3.00;99.90;;;;;;5051747;28;20428;-36
2022/12/12 04:53:18;;;;;;;28.03;17.27;;;3.10;99.90;;;;;;5051456;28;21199;-37
2022/12/12 04:55:54;;;;;;;25.73;17.83;;;3.00;99.90;;;;;;5051832;28;20840;-36
2022/12/12 04:58:20;;;;;;;27.77;17.70;;;3.10;99.90;;;;;;5051858;28;20424;-39
2022/12/12 05:01:04;;;;;;;29.37;19.50;;;3.10;99.90;;;;;;5051328;28;20807;-40
2022/12/12 05:03:42;;;;;;;26.17;17.80;;;3.00;99.90;;;;;;5051461;28;21147;-37
2022/12/12 05:06:13;;;;;;;28.17;17.40;;;3.00;99.90;;;;;;5050734;28;20573;-38
2022/12/12 05:08:52;;;;;;;28.00;17.53;;;3.00;99.90;;;;;;5049363;28;20513;-33
2022/12/12 05:11:20;;;;;;;23.10;15.90;;;3.10;99.90;;;;;;5051456;28;20408;-37
2022/12/12 05:13:45;;;;;;;27.87;18.33;;;3.10;99.90;;;;;;5051308;28;20435;-38
2022/12/12 05:16:34;;;;;;;25.43;16.80;;;3.00;99.90;;;;;;5051091;28;20461;-38
2022/12/12 05:19:00;;;;;;;28.77;18.43;;;2.90;99.90;;;;;;5044121;28;20191;-36
2022/12/12 05:21:26;;;;;;;28.40;18.80;;;2.90;99.90;;;;;;5051197;28;20499;-39
2022/12/12 05:23:52;;;;;;;31.73;19.83;;;2.90;99.90;;;;;;5051066;28;20416;-40
2022/12/12 05:26:27;;;;;;;37.30;20.43;;;3.00;99.90;;;;;;5051303;28;20424;-34
2022/12/12 05:28:53;;;;;;;32.43;18.83;;;2.90;99.90;;;;;;5050470;28;20491;-38
2022/12/12 05:31:19;;;;;;;30.97;17.60;;;2.90;99.90;;;;;;5051056;28;20443;-35
2022/12/12 05:33:45;;;;;;;29.30;17.83;;;2.80;99.90;;;;;;5050883;28;20416;-36
2022/12/12 05:36:10;;;;;;;26.70;17.43;;;2.90;99.90;;;;;;5051109;28;20209;-36
2022/12/12 05:38:36;;;;;;;29.83;17.60;;;2.90;99.90;;;;;;5050506;28;20456;-35
2022/12/12 05:41:02;;;;;;;28.97;19.40;;;2.90;99.90;;;;;;5048665;28;20730;-37
2022/12/12 05:43:28;;;;;;;29.87;17.77;;;2.80;99.90;;;;;;5050552;28;20189;-36
2022/12/12 05:45:53;;;;;;;28.03;18.20;;;2.80;99.90;;;;;;5050411;28;20213;-40
2022/12/12 05:48:19;;;;;;;28.60;16.67;;;2.70;99.90;;;;;;5050861;28;20467;-36
2022/12/12 05:50:45;;;;;;;29.23;17.83;;;2.90;99.90;;;;;;5050138;28;20177;-39
2022/12/12 05:53:10;;;;;;;31.90;20.10;;;2.70;99.90;;;;;;5050479;28;20190;-35
2022/12/12 05:55:36;;;;;;;27.80;18.30;;;2.90;99.90;;;;;;5049878;28;20182;-38
2022/12/12 05:58:02;;;;;;;28.60;17.80;;;2.70;99.90;;;;;;5050445;28;20548;-39
2022/12/12 06:00:28;;;;;;;28.43;17.87;;;2.60;99.90;;;;;;5049969;28;20178;-37
2022/12/12 06:02:54;;;;;;;24.10;16.57;;;2.80;99.90;;;;;;5049582;28;20412;-37
2022/12/12 06:05:20;;;;;;;26.40;17.10;;;2.60;99.90;;;;;;5049912;28;20493;-39
2022/12/12 06:07:45;;;;;;;27.87;17.33;;;2.70;99.90;;;;;;5048574;28;20294;-35
2022/12/12 06:10:11;;;;;;;30.27;18.20;;;2.60;99.90;;;;;;5049080;28;20559;-39
2022/12/12 06:12:37;;;;;;;29.40;19.50;;;2.70;99.90;;;;;;5049502;28;20193;-39
2022/12/12 06:15:03;;;;;;;30.23;18.03;;;2.60;99.90;;;;;;5049889;28;20190;-37
2022/12/12 06:17:29;;;;;;;27.10;18.20;;;2.50;99.90;;;;;;5050321;28;20956;-38
2022/12/12 06:19:55;;;;;;;29.57;18.53;;;2.60;99.90;;;;;;5049121;28;20428;-37
2022/12/12 06:22:20;;;;;;;29.90;18.33;;;2.70;99.90;;;;;;5043001;28;20324;-36
2022/12/12 06:24:46;;;;;;;25.27;17.27;;;2.70;99.90;;;;;;5040973;28;20242;-37
2022/12/12 06:27:11;;;;;;;30.40;18.03;;;2.60;99.90;;;;;;5048037;28;20197;-39
2022/12/12 06:29:37;;;;;;;29.10;17.60;;;2.60;99.90;;;;;;5043402;28;20438;-34
2022/12/12 06:32:03;;;;;;;30.03;17.83;;;2.70;99.90;;;;;;5047528;28;20186;-39
2022/12/12 06:34:29;;;;;;;27.20;16.70;;;2.60;99.90;;;;;;5028018;28;20291;-32
2022/12/12 06:36:54;;;;;;;26.43;18.10;;;2.50;99.90;;;;;;5028352;28;20484;-39
2022/12/12 06:39:20;;;;;;;25.97;17.77;;;2.60;99.90;;;;;;5027826;28;20662;-39
2022/12/12 06:41:46;;;;;;;25.40;16.57;;;2.60;99.90;;;;;;5027911;28;20693;-38
2022/12/12 06:44:11;;;;;;;28.33;17.77;;;2.50;99.90;;;;;;5026390;28;20500;-39
2022/12/12 06:46:38;;;;;;;30.93;19.17;;;2.60;99.90;;;;;;5026115;28;20190;-32
2022/12/12 06:49:08;;;;;;;23.77;16.07;;;2.50;99.90;;;;;;5043737;28;20229;-40
2022/12/12 06:51:37;;;;;;;33.00;19.33;;;2.50;99.90;;;;;;5047670;28;20463;-37
2022/12/12 06:54:03;;;;;;;31.57;17.73;;;2.40;99.90;;;;;;5047310;28;20439;-39
2022/12/12 06:56:29;;;;;;;28.93;18.23;;;2.60;99.90;;;;;;5047803;28;20820;-37
2022/12/12 06:58:58;;;;;;;28.70;17.40;;;2.30;99.90;;;;;;5046834;28;20439;-37
2022/12/12 07:01:24;;;;;;;28.93;17.83;;;2.60;99.90;;;;;;5045242;28;20448;-38
2022/12/12 07:03:50;;;;;;;27.63;18.57;;;2.40;99.90;;;;;;5039237;28;20435;-40
2022/12/12 07:06:17;;;;;;;26.63;17.37;;;2.40;99.90;;;;;;5047653;28;20486;-40
2022/12/12 07:08:43;;;;;;;28.30;19.13;;;2.20;99.90;;;;;;5044795;28;20468;-37
2022/12/12 07:11:14;;;;;;;35.50;19.00;;;2.10;99.90;;;;;;5047777;28;20522;-38
2022/12/12 07:13:40;;;;;;;33.03;18.23;;;2.10;99.90;;;;;;5047083;28;20538;-40
2022/12/12 07:16:07;;;;;;;27.37;17.80;;;2.20;99.90;;;;;;5044303;28;20463;-40
2022/12/12 07:18:33;;;;;;;25.10;17.30;;;2.20;99.90;;;;;;5037301;28;20802;-38
2022/12/12 07:21:03;;;;;;;26.13;16.97;;;2.20;99.90;;;;;;5036905;28;20429;-40
2022/12/12 07:23:28;;;;;;;28.00;17.13;;;2.20;99.90;;;;;;5035112;28;20429;-40
2022/12/12 07:25:54;;;;;;;27.30;17.60;;;2.00;99.90;;;;;;5029172;28;20753;-34
2022/12/12 07:28:20;;;;;;;30.27;18.97;;;2.20;99.90;;;;;;5027459;28;20222;-37
2022/12/12 07:30:46;;;;;;;44.90;24.30;;;2.20;99.90;;;;;;5027319;28;20175;-39
2022/12/12 07:33:13;;;;;;;54.20;27.40;;;2.20;99.90;;;;;;5026774;28;20167;-35
2022/12/12 07:35:40;;;;;;;64.00;32.00;;;2.30;99.90;;;;;;5027574;28;20410;-40
2022/12/12 07:38:06;;;;;;;66.17;33.37;;;2.20;99.90;;;;;;5026915;28;20829;-37
2022/12/12 07:40:32;;;;;;;54.63;31.47;;;2.30;99.90;;;;;;5026796;28;20429;-37
2022/12/12 07:42:59;;;;;;;62.50;32.07;;;2.20;99.90;;;;;;5026946;28;20421;-32
2022/12/12 07:45:25;;;;;;;55.83;33.03;;;2.00;99.90;;;;;;5027468;28;20421;-34
2022/12/12 07:47:51;;;;;;;52.50;28.97;;;2.20;99.90;;;;;;5033256;28;20926;-39
2022/12/12 07:50:17;;;;;;;41.40;24.10;;;1.90;99.90;;;;;;5039333;28;20182;-39
2022/12/12 07:52:43;;;;;;;36.57;22.37;;;2.00;99.90;;;;;;5042134;28;20417;-35
2022/12/12 07:55:09;;;;;;;39.17;22.47;;;2.00;99.90;;;;;;5026536;28;20483;-37
2022/12/12 07:57:35;;;;;;;39.33;22.20;;;2.00;99.90;;;;;;5032836;28;20174;-38
2022/12/12 08:00:03;;;;;;;38.70;24.27;;;2.00;99.90;;;;;;5046347;28;20515;-37
2022/12/12 08:02:28;;;;;;;45.23;25.83;;;2.10;99.90;;;;;;5047436;28;20503;-37
2022/12/12 08:04:54;;;;;;;45.20;27.90;;;2.10;99.90;;;;;;5035376;28;20527;-37
2022/12/12 08:07:19;;;;;;;42.53;24.60;;;2.00;99.90;;;;;;5043494;28;20189;-38
2022/12/12 08:09:45;;;;;;;36.43;22.90;;;1.80;99.90;;;;;;5045290;28;20201;-37
2022/12/12 08:12:11;;;;;;;32.80;20.70;;;2.10;99.90;;;;;;5042812;28;20184;-40
2022/12/12 08:14:36;;;;;;;34.00;21.30;;;2.00;99.90;;;;;;5047003;28;20181;-40
2022/12/12 08:17:02;;;;;;;30.43;18.60;;;1.90;99.90;;;;;;5035860;28;20209;-38
2022/12/12 08:19:28;;;;;;;28.87;19.77;;;1.80;99.90;;;;;;5046346;28;20260;-39
2022/12/12 08:21:53;;;;;;;30.43;18.70;;;1.80;99.90;;;;;;5046755;28;20185;-35
2022/12/12 08:24:19;;;;;;;28.60;18.40;;;1.90;99.90;;;;;;5045595;28;20239;-38
2022/12/12 08:26:45;;;;;;;27.70;19.07;;;1.70;99.90;;;;;;5047018;28;20247;-38
2022/12/12 08:29:10;;;;;;;25.87;17.80;;;1.90;99.90;;;;;;5045305;28;20256;-38
2022/12/12 08:31:39;;;;;;;29.27;17.53;;;2.10;99.90;;;;;;5046660;28;20178;-38
2022/12/12 08:34:05;;;;;;;31.00;19.10;;;2.10;99.90;;;;;;5046963;28;20653;-33
2022/12/12 08:36:33;;;;;;;27.93;18.43;;;2.20;99.90;;;;;;5048745;28;20469;-37
2022/12/12 08:39:09;;;;;;;29.70;19.30;;;2.30;99.90;;;;;;5030064;28;20631;-39
2022/12/12 08:41:37;;;;;;;30.43;20.70;;;2.30;99.90;;;;;;5030764;28;20428;-38
2022/12/12 08:44:03;;;;;;;31.40;19.60;;;2.40;99.90;;;;;;5028987;28;20437;-40
2022/12/12 08:46:29;;;;;;;28.37;19.03;;;2.40;99.90;;;;;;5030560;28;20842;-37
2022/12/12 08:48:55;;;;;;;33.40;20.77;;;2.30;99.90;;;;;;5030132;28;20449;-38
2022/12/12 08:51:21;;;;;;;29.07;19.67;;;2.50;99.90;;;;;;5039881;28;20416;-37
2022/12/12 08:53:48;;;;;;;28.07;19.63;;;2.70;99.90;;;;;;5048596;28;20188;-39
2022/12/12 08:56:15;;;;;;;33.10;20.50;;;2.90;99.90;;;;;;5050343;28;20519;-38
2022/12/12 08:58:40;;;;;;;29.23;19.80;;;2.90;99.90;;;;;;5048421;28;20459;-39
2022/12/12 09:01:11;;;;;;;27.63;19.20;;;3.10;99.90;;;;;;5050320;28;20459;-39
2022/12/12 09:03:36;;;;;;;28.30;19.53;;;3.10;99.90;;;;;;5049871;28;20206;-39
2022/12/12 09:06:05;;;;;;;27.90;19.30;;;3.10;99.90;;;;;;5050127;28;20475;-36
2022/12/12 09:08:31;;;;;;;27.13;18.10;;;3.30;99.90;;;;;;5047916;28;20292;-36
2022/12/12 09:10:58;;;;;;;27.27;18.50;;;3.50;99.90;;;;;;5048441;28;20502;-38
2022/12/12 09:13:24;;;;;;;28.00;18.43;;;3.60;99.90;;;;;;5049596;28;20448;-36
2022/12/12 09:15:51;;;;;;;27.87;19.67;;;3.60;99.90;;;;;;5048242;28;20420;-36
2022/12/12 09:18:17;;;;;;;33.10;19.33;;;3.60;99.90;;;;;;5049905;28;20420;-35
2022/12/12 09:20:48;;;;;;;29.53;20.47;;;3.80;99.90;;;;;;5048964;28;20440;-40
2022/12/12 09:23:14;;;;;;;30.40;19.80;;;4.00;99.90;;;;;;5049587;28;20980;-39
2022/12/12 09:25:39;;;;;;;30.73;20.30;;;4.30;99.90;;;;;;5049371;28;20416;-39
2022/12/12 09:28:05;;;;;;;29.40;19.53;;;3.90;99.90;;;;;;5049754;28;20181;-37
2022/12/12 09:30:31;;;;;;;28.77;19.53;;;4.20;99.90;;;;;;5049005;28;20382;-36
2022/12/12 09:32:56;;;;;;;28.97;19.87;;;4.30;99.90;;;;;;5049162;28;20189;-37
2022/12/12 09:35:22;;;;;;;29.03;18.83;;;4.60;99.90;;;;;;5049564;28;20652;-39
2022/12/12 09:37:47;;;;;;;29.00;19.50;;;4.50;99.90;;;;;;5049075;28;20174;-34
2022/12/12 09:40:44;;;;;;;29.43;19.23;;;4.70;99.90;;;;;;5049060;28;20177;-37
2022/12/12 09:43:17;;;;;;;30.80;19.23;;;4.70;99.90;;;;;;5046658;28;20523;-36
2022/12/12 09:45:43;;;;;;;27.13;18.77;;;4.80;99.90;;;;;;5048334;28;20424;-34
2022/12/12 09:48:18;;;;;;;30.30;20.13;;;5.00;99.90;;;;;;5048782;28;20833;-37
2022/12/12 09:50:47;;;;;;;26.57;19.20;;;4.80;99.90;;;;;;5048987;28;20295;-35
2022/12/12 09:53:16;;;;;;;28.70;18.73;;;5.00;99.90;;;;;;5048451;28;20420;-37
2022/12/12 09:55:53;;;;;;;33.73;20.10;;;5.30;99.90;;;;;;5049228;28;20490;-40
2022/12/12 09:58:37;;;;;;;29.63;19.40;;;5.20;99.90;;;;;;5048905;28;20412;-37
2022/12/12 10:01:17;;;;;;;28.40;19.80;;;5.60;99.90;;;;;;5049149;28;20835;-40
2022/12/12 10:03:55;;;;;;;24.10;18.40;;;5.80;99.90;;;;;;5048875;28;20416;-36
2022/12/12 10:06:22;;;;;;;24.70;18.30;;;5.90;99.90;;;;;;5048404;28;20443;-38
2022/12/12 10:08:53;;;;;;;26.77;19.60;;;5.90;99.90;;;;;;5046947;28;20460;-34
2022/12/12 10:14:27;;;;;;;27.77;19.40;;;6.10;99.90;;;;;;5048856;28;20420;-40
2022/12/12 10:16:55;;;;;;;28.87;20.37;;;6.10;99.90;;;;;;5048406;28;20951;-38
2022/12/12 10:19:27;;;;;;;27.40;19.33;;;6.10;99.90;;;;;;5048531;28;20412;-36
2022/12/12 10:21:59;;;;;;;29.20;19.00;;;6.20;99.90;;;;;;5048535;28;20521;-39
2022/12/12 10:24:46;;;;;;;26.80;18.60;;;6.10;99.90;;;;;;5048484;28;20416;-40
2022/12/12 10:27:13;;;;;;;29.13;20.53;;;6.00;99.90;;;;;;5048420;28;20926;-38
2022/12/12 10:29:47;;;;;;;28.80;19.40;;;5.60;99.90;;;;;;5048227;28;20456;-36
2022/12/12 10:32:45;;;;;;;31.23;21.33;;;5.70;99.90;;;;;;5048790;28;20416;-35
2022/12/12 10:35:40;;;;;;;27.50;20.47;;;5.60;99.90;;;;;;5045652;28;20427;-37
2022/12/12 10:38:11;;;;;;;28.03;19.63;;;5.50;99.90;;;;;;5046744;28;20420;-38
2022/12/12 10:41:05;;;;;;;26.50;19.40;;;5.30;99.90;;;;;;5047709;28;20495;-39
2022/12/12 10:44:16;;;;;;;30.03;20.87;;;5.10;99.90;;;;;;5048128;28;20408;-37
2022/12/12 10:46:48;;;;;;;28.67;20.60;;;5.00;99.90;;;;;;5047697;28;20448;-40
2022/12/12 10:49:17;;;;;;;27.77;19.40;;;5.00;99.90;;;;;;5047562;28;20920;-35
2022/12/12 10:51:45;;;;;;;32.93;19.80;;;4.90;99.90;;;;;;5047530;28;20508;-35
2022/12/12 10:54:18;;;;;;;28.53;20.73;;;4.90;99.90;;;;;;5047417;28;20440;-35
2022/12/12 10:57:25;;;;;;;27.30;19.47;;;5.00;99.90;;;;;;5038683;28;20503;-38
2022/12/12 10:59:53;;;;;;;27.67;19.40;;;5.00;99.90;;;;;;5043435;28;20790;-37
2022/12/12 11:02:38;;;;;;;26.37;18.50;;;5.00;99.90;;;;;;5047264;28;20596;-38
2022/12/12 11:05:08;;;;;;;30.50;19.53;;;4.90;99.90;;;;;;5046572;28;20695;-37
2022/12/12 11:07:39;;;;;;;26.40;19.73;;;4.90;99.90;;;;;;5045936;28;20412;-39
2022/12/12 11:10:29;;;;;;;24.83;18.30;;;5.00;99.90;;;;;;5047746;28;20466;-34
2022/12/12 11:13:15;;;;;;;31.23;21.30;;;5.00;99.90;;;;;;5045638;28;20606;-34
2022/12/12 11:16:00;;;;;;;29.07;19.07;;;5.60;99.90;;;;;;5047438;28;20895;-36
2022/12/12 11:18:27;;;;;;;25.63;18.60;;;5.60;99.90;;;;;;5046823;28;20423;-37
2022/12/12 11:21:02;;;;;;;26.43;18.43;;;5.70;99.90;;;;;;5047750;28;20834;-37
2022/12/12 11:23:29;;;;;;;26.97;18.83;;;5.70;99.90;;;;;;5047373;28;20828;-38
2022/12/12 11:26:00;;;;;;;25.87;19.47;;;5.50;99.90;;;;;;5047552;28;20454;-38
2022/12/12 11:28:34;;;;;;;29.03;19.77;;;5.40;99.90;;;;;;5045469;28;20467;-35
2022/12/12 11:31:05;;;;;;;27.07;18.83;;;5.30;99.90;;;;;;5047355;28;20532;-35
2022/12/12 11:33:38;;;;;;;25.20;18.47;;;5.30;99.90;;;;;;5047106;28;20473;-35
2022/12/12 11:36:05;;;;;;;28.10;20.10;;;5.10;99.90;;;;;;5046685;28;20510;-37
2022/12/12 11:38:38;;;;;;;27.63;18.60;;;5.00;99.90;;;;;;5047047;28;20420;-36
2022/12/12 11:41:08;;;;;;;27.63;18.33;;;5.20;99.90;;;;;;5046823;28;20443;-39
2022/12/12 11:43:37;;;;;;;27.90;18.93;;;5.40;99.90;;;;;;5047230;28;20434;-37
2022/12/12 11:46:13;;;;;;;27.37;18.63;;;5.90;99.90;;;;;;5046919;28;20527;-37
2022/12/12 11:48:52;;;;;;;25.77;18.53;;;6.60;99.90;;;;;;5046766;28;20467;-35
2022/12/12 11:51:37;;;;;;;26.87;19.70;;;7.00;99.90;;;;;;5047288;28;20420;-40
2022/12/12 11:54:19;;;;;;;27.10;20.10;;;7.90;99.90;;;;;;5046789;28;20411;-41
2022/12/12 11:56:56;;;;;;;24.03;18.37;;;8.80;99.90;;;;;;5047053;28;20419;-40
2022/12/12 11:59:39;;;;;;;25.53;19.00;;;11.70;99.90;;;;;;5046804;28;20481;-41
2022/12/12 12:02:34;;;;;;;22.57;18.30;;;14.60;96.40;;;;;;5047645;28;20419;-39
2022/12/12 12:05:37;;;;;;;22.80;18.40;;;16.50;92.30;;;;;;5026021;28;20452;-36
2022/12/12 12:08:22;;;;;;;23.50;18.37;;;18.20;82.70;;;;;;5045691;28;20461;-39
2022/12/12 12:10:59;;;;;;;25.43;18.20;;;18.60;77.20;;;;;;5050560;28;20401;-38
2022/12/12 12:14:01;;;;;;;21.80;16.73;;;16.30;73.20;;;;;;5050451;28;20948;-39
2022/12/12 12:16:46;;;;;;;21.03;18.10;;;14.20;76.60;;;;;;5050314;28;20485;-40
2022/12/12 12:19:39;;;;;;;21.37;17.63;;;12.50;81.40;;;;;;5050786;28;20481;-39
2022/12/12 12:23:02;;;;;;;22.13;17.70;;;11.10;86.40;;;;;;5046071;28;20530;-39
2022/12/12 12:26:00;;;;;;;21.93;17.80;;;9.90;92.50;;;;;;5011124;28;20479;-35
2022/12/12 12:28:43;;;;;;;22.07;16.83;;;8.90;95.00;;;;;;5050444;28;20452;-34
2022/12/12 12:31:39;;;;;;;21.40;17.37;;;8.40;97.00;;;;;;5050712;28;20727;-35
2022/12/12 12:34:23;;;;;;;18.80;15.77;;;7.90;98.50;;;;;;5050209;28;20408;-38
2022/12/12 12:36:55;;;;;;;23.20;16.03;;;7.40;99.40;;;;;;5050631;28;20411;-38
2022/12/12 12:39:37;;;;;;;22.40;16.53;;;7.40;99.90;;;;;;5049659;28;20420;-37
2022/12/12 12:42:20;;;;;;;22.47;17.40;;;6.80;99.90;;;;;;5049036;28;20427;-38
2022/12/12 12:44:58;;;;;;;26.67;16.70;;;6.70;99.90;;;;;;5049590;28;20416;-38
2022/12/12 12:47:35;;;;;;;22.17;17.07;;;6.30;99.90;;;;;;5050584;28;20412;-37
2022/12/12 12:50:12;;;;;;;23.73;15.87;;;6.30;99.90;;;;;;5049312;28;20494;-37
2022/12/12 12:52:44;;;;;;;21.77;15.17;;;6.00;99.90;;;;;;5030003;28;20478;-36
2022/12/12 12:55:23;;;;;;;18.57;14.17;;;5.90;99.90;;;;;;5029517;28;20413;-35
2022/12/12 12:57:50;;;;;;;16.80;13.37;;;5.80;99.90;;;;;;5030397;28;20961;-39
2022/12/12 13:00:18;;;;;;;19.67;13.53;;;5.60;99.90;;;;;;5029074;28;20833;-37
2022/12/12 13:03:01;;;;;;;17.30;12.90;;;5.60;99.90;;;;;;5030066;28;20428;-35
2022/12/12 13:05:42;;;;;;;15.40;11.20;;;5.30;99.90;;;;;;5027595;28;20532;-39
2022/12/12 13:08:27;;;;;;;17.37;13.00;;;5.40;99.90;;;;;;5027100;28;20423;-40
2022/12/12 13:11:00;;;;;;;16.30;12.17;;;5.20;99.90;;;;;;5029590;28;20409;-36
2022/12/12 13:13:33;;;;;;;16.67;12.40;;;5.20;99.90;;;;;;5029786;28;20410;-38
2022/12/12 13:16:09;;;;;;;15.70;11.77;;;5.10;99.90;;;;;;5029452;28;20452;-38